createdAt,value
2024-04-19T00:01:00.851Z,0.81
2024-04-19T00:04:05.583Z,1.00
2024-04-19T00:07:09.597Z,1.20
2024-04-19T00:10:22.846Z,1.33
2024-04-19T00:13:29.758Z,1.57
2024-04-19T00:16:33.010Z,1.75
2024-04-19T00:19:36.641Z,1.89
2024-04-19T00:22:40.659Z,2.03
2024-04-19T00:25:44.335Z,2.06
2024-04-19T00:28:48.486Z,2.30
2024-04-19T00:31:52.814Z,2.48
2024-04-19T00:34:56.787Z,2.58
2024-04-19T00:38:00.668Z,2.74
2024-04-19T00:41:10.374Z,2.75
2024-04-19T00:44:14.177Z,2.84
2024-04-19T00:47:19.401Z,2.98
2024-04-19T00:50:23.325Z,3.09
2024-04-19T00:53:33.063Z,3.27
2024-04-19T00:56:54.876Z,3.36
2024-04-19T00:59:58.951Z,3.22
2024-04-19T01:03:02.431Z,3.44
2024-04-19T01:06:09.787Z,3.64
2024-04-19T01:09:13.711Z,3.61
2024-04-19T01:12:18.455Z,3.61
2024-04-19T01:15:25.995Z,3.85
2024-04-19T01:18:30.682Z,3.98
2024-04-19T01:21:35.194Z,4.15
2024-04-19T01:24:48.422Z,4.16
2024-04-19T01:27:52.428Z,4.22
2024-04-19T01:30:56.853Z,4.19
2024-04-19T01:34:01.000Z,4.36
2024-04-19T01:37:06.159Z,4.60
2024-04-19T01:40:10.376Z,4.44
2024-04-19T01:43:14.610Z,4.40
2024-04-19T01:46:27.251Z,4.63
2024-04-19T01:49:31.174Z,4.84
2024-04-19T01:52:35.034Z,4.64
2024-04-19T01:55:39.321Z,4.67
2024-04-19T01:58:43.306Z,4.78
2024-04-19T02:01:46.967Z,4.74
2024-04-19T02:04:50.558Z,4.89
2024-04-19T02:07:54.703Z,4.75
2024-04-19T02:11:02.310Z,4.84
2024-04-19T02:14:06.513Z,5.02
2024-04-19T02:17:10.060Z,5.16
2024-04-19T02:20:14.414Z,5.12
2024-04-19T02:23:40.997Z,5.49
2024-04-19T02:26:44.268Z,5.53
2024-04-19T02:30:06.367Z,5.36
2024-04-19T02:33:09.715Z,5.36
2024-04-19T02:36:13.935Z,5.44
2024-04-19T02:39:18.057Z,5.56
2024-04-19T02:42:22.168Z,5.50
2024-04-19T02:45:29.167Z,5.90
2024-04-19T02:48:34.126Z,6.16
2024-04-19T02:51:38.610Z,6.21
2024-04-19T02:54:42.654Z,6.47
2024-04-19T02:57:48.002Z,6.25
2024-04-19T03:01:11.906Z,6.42
2024-04-19T03:04:16.304Z,6.42
2024-04-19T03:07:20.650Z,6.60
2024-04-19T03:10:25.169Z,6.77
2024-04-19T03:13:28.941Z,6.73
2024-04-19T03:16:33.076Z,6.66
2024-04-19T03:19:36.962Z,6.74
2024-04-19T03:22:41.405Z,6.77
2024-04-19T03:25:45.297Z,6.80
2024-04-19T03:28:52.522Z,6.71
2024-04-19T03:31:56.452Z,6.78
2024-04-19T03:35:00.591Z,6.98
2024-04-19T03:38:04.497Z,6.94
2024-04-19T03:41:08.772Z,7.02
2024-04-19T03:44:30.973Z,6.95
2024-04-19T03:47:35.709Z,7.09
2024-04-19T03:50:39.492Z,7.28
2024-04-19T03:53:43.821Z,7.16
2024-04-19T03:56:47.682Z,7.22
2024-04-19T03:59:51.917Z,7.32
2024-04-19T04:02:55.872Z,7.42
2024-04-19T04:06:00.765Z,7.66
2024-04-19T04:09:04.408Z,7.75
2024-04-19T04:12:08.974Z,7.59
2024-04-19T04:15:12.939Z,7.84
2024-04-19T04:18:16.996Z,7.88
2024-04-19T04:21:21.625Z,7.84
2024-04-19T04:24:25.698Z,7.90
2024-04-19T04:27:30.158Z,8.09
2024-04-19T04:30:34.492Z,7.98
2024-04-19T04:33:38.423Z,8.36
2024-04-19T04:36:42.678Z,8.35
2024-04-19T04:39:46.792Z,8.19
2024-04-19T04:42:51.239Z,8.18
2024-04-19T04:45:55.071Z,8.33
2024-04-19T04:48:59.534Z,8.70
2024-04-19T04:52:03.527Z,8.97
2024-04-19T04:55:09.136Z,9.38
2024-04-19T04:58:13.091Z,9.42
2024-04-19T05:01:17.452Z,9.21
2024-04-19T05:04:21.391Z,9.21
2024-04-19T05:07:27.571Z,9.35
2024-04-19T05:10:31.747Z,9.26
2024-04-19T05:13:36.171Z,9.18
2024-04-19T05:16:42.181Z,9.07
2024-04-19T05:19:46.064Z,9.45
2024-04-19T05:22:49.713Z,9.67
2024-04-19T05:25:53.713Z,9.62
2024-04-19T05:28:57.536Z,9.69
2024-04-19T05:32:01.711Z,9.60
2024-04-19T05:35:05.830Z,9.74
2024-04-19T05:38:10.163Z,10.00
2024-04-19T05:41:13.718Z,9.97
2024-04-19T05:44:21.209Z,10.24
2024-04-19T05:47:25.013Z,10.19
2024-04-19T05:50:28.769Z,10.44
2024-04-19T05:53:32.679Z,10.27
2024-04-19T05:56:36.932Z,10.42
2024-04-19T05:59:41.407Z,10.76
2024-04-19T06:02:45.813Z,11.48
2024-04-19T06:05:51.104Z,11.97
2024-04-19T06:08:55.575Z,11.63
2024-04-19T06:12:01.349Z,11.72
2024-04-19T06:15:06.104Z,11.96
2024-04-19T06:18:11.212Z,12.55
2024-04-19T06:21:15.643Z,12.62
2024-04-19T06:24:19.645Z,12.95
2024-04-19T06:27:23.060Z,13.06
2024-04-19T06:30:27.874Z,13.34
2024-04-19T06:33:32.057Z,13.66
2024-04-19T06:36:35.827Z,13.74
2024-04-19T06:39:50.421Z,13.58
2024-04-19T06:43:02.925Z,13.75
2024-04-19T06:46:07.123Z,13.81
2024-04-19T06:49:11.190Z,13.66
2024-04-19T06:52:15.633Z,14.20
2024-04-19T06:55:19.747Z,14.92
2024-04-19T06:58:24.095Z,15.60
2024-04-19T07:01:28.091Z,15.33
2024-04-19T07:04:32.565Z,16.08
2024-04-19T07:07:38.571Z,16.49
2024-04-19T07:10:42.806Z,15.67
2024-04-19T07:13:49.653Z,16.85
2024-04-19T07:16:54.276Z,18.48
2024-04-19T07:20:01.002Z,19.15
2024-04-19T07:23:05.371Z,19.41
2024-04-19T07:26:09.140Z,20.07
2024-04-19T07:29:15.916Z,20.25
2024-04-19T07:32:22.491Z,20.24
2024-04-19T07:35:27.304Z,19.89
2024-04-19T07:38:31.167Z,21.26
2024-04-19T07:41:37.124Z,22.68
2024-04-19T07:44:41.258Z,23.84
2024-04-19T07:47:45.658Z,24.06
2024-04-19T07:50:49.695Z,24.61
2024-04-19T07:53:53.457Z,25.83
2024-04-19T07:56:57.352Z,26.00
2024-04-19T08:00:03.229Z,25.74
2024-04-19T08:03:14.827Z,26.51
2024-04-19T08:06:19.155Z,26.89
2024-04-19T08:09:23.229Z,26.41
2024-04-19T08:12:27.477Z,25.69
2024-04-19T08:15:31.161Z,25.29
2024-04-19T08:18:35.739Z,26.10
2024-04-19T08:21:44.673Z,26.75
2024-04-19T08:24:54.379Z,26.92
2024-04-19T08:27:58.395Z,25.79
2024-04-19T08:31:02.014Z,25.10
2024-04-19T08:34:05.842Z,23.50
2024-04-19T08:37:10.217Z,22.39
2024-04-19T08:40:14.524Z,21.51
2024-04-19T08:43:20.784Z,22.00
2024-04-19T08:46:25.421Z,20.21
2024-04-19T08:49:29.272Z,20.71
2024-04-19T08:52:55.317Z,21.23
2024-04-19T08:55:57.538Z,20.83
2024-04-19T08:59:01.757Z,20.99
2024-04-19T09:02:05.983Z,21.41
2024-04-19T09:05:09.438Z,21.65
2024-04-19T09:08:14.880Z,22.33
2024-04-19T09:11:18.783Z,23.24
2024-04-19T09:14:23.217Z,24.16
2024-04-19T09:17:26.845Z,25.32
2024-04-19T09:20:31.309Z,25.69
2024-04-19T09:23:34.755Z,25.90
2024-04-19T09:26:39.336Z,25.07
2024-04-19T09:29:42.803Z,24.18
2024-04-19T09:32:49.015Z,23.47
2024-04-19T09:35:54.225Z,22.71
2024-04-19T09:39:00.389Z,21.74
2024-04-19T09:42:05.085Z,20.75
2024-04-19T09:45:10.988Z,19.87
2024-04-19T09:48:18.689Z,18.91
2024-04-19T09:51:22.930Z,18.42
2024-04-19T09:54:39.195Z,18.01
2024-04-19T09:57:48.279Z,17.45
2024-04-19T10:05:08.144Z,16.16
2024-04-19T10:08:12.812Z,15.94
2024-04-19T10:11:17.147Z,15.78
2024-04-19T10:14:25.950Z,15.82
2024-04-19T10:17:30.195Z,16.09
2024-04-19T10:20:34.232Z,16.57
2024-04-19T10:23:41.956Z,16.15
2024-04-19T10:26:53.242Z,15.75
2024-04-19T10:29:59.844Z,15.44
2024-04-19T10:33:04.550Z,15.16
2024-04-19T10:36:12.903Z,14.93
2024-04-19T10:39:17.932Z,15.55
2024-04-19T10:42:28.609Z,16.18
2024-04-19T10:45:32.919Z,16.78
2024-04-19T10:48:46.650Z,16.34
2024-04-19T10:52:30.586Z,15.81
2024-04-19T10:55:19.928Z,15.49
2024-04-19T10:58:24.519Z,15.68
2024-04-19T11:01:43.657Z,15.54
2024-04-19T11:04:46.958Z,15.25
2024-04-19T11:07:50.152Z,14.95
2024-04-19T11:10:54.056Z,14.40
2024-04-19T11:13:57.238Z,13.78
2024-04-19T11:17:01.998Z,13.30
2024-04-19T11:20:05.447Z,13.24
2024-04-19T11:23:09.315Z,12.82
2024-04-19T11:26:12.657Z,12.35
2024-04-19T11:29:15.846Z,11.87
2024-04-19T11:32:19.453Z,11.48
2024-04-19T11:35:22.870Z,11.13
2024-04-19T11:38:26.793Z,10.80
2024-04-19T11:41:31.867Z,10.48
2024-04-19T11:44:40.814Z,10.18
2024-04-19T11:47:44.277Z,9.97
2024-04-19T11:50:49.156Z,9.63
2024-04-19T11:53:53.249Z,9.38
2024-04-19T11:56:57.175Z,9.18
2024-04-19T12:00:01.271Z,9.12
2024-04-19T12:06:27.619Z,8.78
2024-04-19T12:09:47.174Z,8.73
2024-04-19T12:16:35.583Z,8.54
2024-04-19T12:19:36.210Z,8.45
2024-04-19T12:22:45.664Z,8.35
2024-04-19T12:25:55.192Z,8.28
2024-04-19T12:28:59.541Z,8.11
2024-04-19T12:32:05.148Z,7.71
2024-04-19T12:35:11.439Z,7.36
2024-04-19T12:38:15.316Z,7.16
2024-04-19T12:41:18.364Z,7.08
2024-04-19T12:44:25.067Z,6.95
2024-04-19T12:47:30.093Z,6.85
2024-04-19T12:50:38.156Z,6.71
2024-04-19T12:53:44.005Z,6.61
2024-04-19T12:56:48.537Z,6.64
2024-04-19T12:59:52.376Z,6.53
2024-04-19T13:02:58.173Z,6.37
2024-04-19T13:06:02.041Z,6.29
2024-04-19T13:09:06.646Z,6.26
2024-04-19T13:12:11.205Z,6.28
2024-04-19T13:15:15.273Z,6.23
2024-04-19T13:18:19.188Z,6.28
2024-04-19T13:21:25.350Z,6.26
2024-04-19T13:24:29.284Z,6.30
2024-04-19T13:27:34.051Z,6.34
2024-04-19T13:30:39.720Z,6.34
2024-04-19T13:33:44.249Z,6.36
2024-04-19T13:36:48.496Z,6.32
2024-04-19T13:39:52.908Z,6.28
2024-04-19T13:42:58.225Z,6.23
2024-04-19T13:46:03.810Z,6.18
2024-04-19T13:49:07.291Z,6.04
2024-04-19T13:52:12.157Z,5.97
2024-04-19T13:55:16.225Z,5.84
2024-04-19T13:58:20.404Z,5.78
2024-04-19T14:01:25.097Z,5.66
2024-04-19T14:04:30.634Z,5.54
2024-04-19T14:07:34.494Z,5.43
2024-04-19T14:10:39.056Z,5.30
2024-04-19T14:13:42.947Z,5.18
2024-04-19T14:16:47.129Z,5.04
2024-04-19T14:19:51.523Z,4.91
2024-04-19T14:22:55.888Z,4.77
2024-04-19T14:26:01.726Z,4.63
2024-04-19T14:29:06.149Z,4.52
2024-04-19T14:32:10.061Z,4.44
2024-04-19T14:35:14.455Z,4.34
2024-04-19T14:38:18.560Z,4.23
2024-04-19T14:41:25.474Z,4.05
2024-04-19T14:44:29.293Z,3.95
2024-04-19T14:47:33.665Z,3.82
2024-04-19T14:50:37.457Z,3.74
2024-04-19T14:53:41.371Z,3.66
2024-04-19T14:56:44.895Z,3.57
2024-04-19T14:59:49.263Z,3.41
2024-04-19T15:02:53.367Z,3.31
2024-04-19T15:05:56.964Z,3.22
2024-04-19T15:09:01.238Z,3.22
2024-04-19T15:12:05.865Z,3.15
2024-04-19T15:15:12.466Z,3.16
2024-04-19T15:18:16.780Z,3.20
2024-04-19T15:21:23.101Z,3.18
2024-04-19T15:24:27.522Z,3.12
2024-04-19T15:27:32.518Z,3.02
2024-04-19T15:30:40.265Z,2.91
2024-04-19T15:33:44.335Z,2.85
2024-04-19T15:36:50.156Z,2.82
2024-04-19T15:39:54.508Z,2.74
2024-04-19T15:42:59.092Z,2.68
2024-04-19T15:46:04.732Z,2.66
2024-04-19T15:49:09.025Z,2.62
2024-04-19T15:52:13.068Z,2.60
2024-04-19T15:55:20.366Z,2.50
2024-04-19T15:58:24.362Z,2.50
2024-04-19T16:01:29.034Z,2.46
2024-04-19T16:04:33.102Z,2.40
2024-04-19T16:07:37.096Z,2.33
2024-04-19T16:10:41.503Z,2.23
2024-04-19T16:13:45.677Z,2.17
2024-04-19T16:16:50.695Z,2.15
2024-04-19T16:19:54.805Z,2.13
2024-04-19T16:22:58.767Z,2.06
2024-04-19T16:26:03.146Z,1.98
2024-04-19T16:29:07.091Z,1.79
2024-04-19T16:32:11.353Z,1.58
2024-04-19T16:35:15.008Z,1.40
2024-04-19T16:38:19.171Z,1.34
2024-04-19T16:41:23.106Z,1.27
2024-04-19T16:44:27.220Z,1.23
2024-04-19T16:47:30.879Z,1.20
2024-04-19T16:50:35.182Z,1.32
2024-04-19T16:53:39.092Z,1.37
2024-04-19T16:56:43.953Z,1.41
2024-04-19T16:59:47.439Z,1.41
2024-04-19T17:02:51.726Z,1.48
2024-04-19T17:05:55.527Z,1.48
2024-04-19T17:08:59.803Z,1.44
2024-04-19T17:12:07.024Z,1.43
2024-04-19T17:15:11.073Z,1.39
2024-04-19T17:18:15.128Z,1.30
2024-04-19T17:21:19.759Z,1.20
2024-04-19T17:24:23.610Z,1.07
2024-04-19T17:27:28.019Z,0.91
2024-04-19T17:30:32.155Z,0.72
2024-04-19T17:33:36.935Z,0.58
2024-04-19T17:36:41.179Z,0.48
2024-04-19T17:39:45.990Z,0.34
2024-04-19T17:42:51.369Z,0.17
2024-04-19T17:45:56.047Z,-0.01
2024-04-19T17:49:00.507Z,-0.08
2024-04-19T17:52:06.362Z,-0.14
2024-04-19T17:55:10.650Z,-0.10
2024-04-19T17:58:15.372Z,-0.02
2024-04-19T18:01:19.339Z,0.03
2024-04-19T18:04:24.270Z,-0.01
2024-04-19T18:07:28.348Z,0.00
2024-04-19T18:10:32.015Z,-0.02
2024-04-19T18:13:36.198Z,0.00
2024-04-19T18:16:42.084Z,0.06
2024-04-19T18:19:46.216Z,0.09
2024-04-19T18:22:50.386Z,0.13
2024-04-19T18:25:53.768Z,0.16
2024-04-19T18:28:58.050Z,0.19
2024-04-19T18:32:02.035Z,0.24
2024-04-19T18:35:06.640Z,0.27
2024-04-19T18:38:10.648Z,0.30
2024-04-19T18:41:14.601Z,0.36
2024-04-19T18:44:18.747Z,0.43
2024-04-19T18:47:22.852Z,0.48
2024-04-19T18:50:26.569Z,0.48
2024-04-19T18:53:31.582Z,0.51
2024-04-19T18:56:35.298Z,0.46
2024-04-19T18:59:39.518Z,0.43
2024-04-19T19:02:43.761Z,0.41
2024-04-19T19:05:55.107Z,0.40
2024-04-19T19:08:58.906Z,0.38
2024-04-19T19:12:02.698Z,0.34
2024-04-19T19:15:06.810Z,0.23
2024-04-19T19:18:12.076Z,0.06
2024-04-19T19:21:16.040Z,-0.10
2024-04-19T19:24:20.587Z,-0.25
2024-04-19T19:27:24.328Z,-0.32
2024-04-19T19:30:28.625Z,-0.40
2024-04-19T19:33:32.516Z,-0.56
2024-04-19T19:36:36.350Z,-0.59
2024-04-19T19:39:40.179Z,-0.66
2024-04-19T19:42:44.497Z,-0.66
2024-04-19T19:45:55.466Z,-0.72
2024-04-19T19:48:59.823Z,-0.76
2024-04-19T19:52:05.656Z,-0.83
2024-04-19T19:55:09.845Z,-0.91
2024-04-19T19:58:13.505Z,-0.94
2024-04-19T20:01:36.149Z,-0.93
2024-04-19T20:04:58.850Z,-0.95
2024-04-19T20:08:03.277Z,-0.97
2024-04-19T20:11:07.220Z,-1.04
2024-04-19T20:14:11.527Z,-1.04
2024-04-19T20:17:14.999Z,-1.09
2024-04-19T20:20:19.119Z,-1.14
2024-04-19T20:23:23.553Z,-1.15
2024-04-19T20:26:27.752Z,-1.18
2024-04-19T20:29:32.264Z,-1.24
2024-04-19T20:32:37.107Z,-1.27
2024-04-19T20:35:40.805Z,-1.27
2024-04-19T20:38:45.026Z,-1.28
2024-04-19T20:41:49.125Z,-1.32
2024-04-19T20:44:53.576Z,-1.39
2024-04-19T20:47:58.064Z,-1.38
2024-04-19T20:51:02.230Z,-1.42
2024-04-19T20:54:06.009Z,-1.42
2024-04-19T20:57:10.037Z,-1.45
2024-04-19T21:00:13.911Z,-1.42
2024-04-19T21:03:18.200Z,-1.38
2024-04-19T21:06:22.692Z,-1.45
2024-04-19T21:09:27.237Z,-1.39
2024-04-19T21:12:31.468Z,-1.31
2024-04-19T21:15:35.984Z,-1.27
2024-04-19T21:18:39.823Z,-1.22
2024-04-19T21:21:44.156Z,-1.24
2024-04-19T21:24:48.086Z,-1.24
2024-04-19T21:27:52.333Z,-1.28
2024-04-19T21:31:06.282Z,-1.28
2024-04-19T21:34:11.158Z,-1.30
2024-04-19T21:37:15.013Z,-1.32
2024-04-19T21:40:20.057Z,-1.36
2024-04-19T21:43:24.123Z,-1.39
2024-04-19T21:46:30.211Z,-1.39
2024-04-19T21:49:33.659Z,-1.35
2024-04-19T21:52:37.899Z,-1.36
2024-04-19T21:55:48.012Z,-1.36
2024-04-19T21:58:54.694Z,-1.34
2024-04-19T22:01:58.855Z,-1.32
2024-04-19T22:05:02.850Z,-1.31
2024-04-19T22:08:07.616Z,-1.24
2024-04-19T22:11:11.956Z,-1.21
2024-04-19T22:14:19.256Z,-1.14
2024-04-19T22:17:28.770Z,-1.11
2024-04-19T22:20:32.587Z,-1.03
2024-04-19T22:23:40.895Z,-0.95
2024-04-19T22:26:45.276Z,-0.86
2024-04-19T22:29:49.628Z,-0.74
2024-04-19T22:32:53.497Z,-0.66
2024-04-19T22:35:58.594Z,-0.56
2024-04-19T22:39:02.386Z,-0.50
2024-04-19T22:42:07.409Z,-0.42
2024-04-19T22:45:11.155Z,-0.28
2024-04-19T22:48:15.057Z,-0.18
2024-04-19T22:51:18.815Z,-0.04
2024-04-19T22:54:23.131Z,0.11
2024-04-19T22:57:27.205Z,0.11
2024-04-19T23:00:31.210Z,0.14
2024-04-19T23:03:35.750Z,0.24
2024-04-19T23:06:39.941Z,0.40
2024-04-19T23:09:44.250Z,0.53
2024-04-19T23:12:48.734Z,0.67
2024-04-19T23:15:52.326Z,0.76
2024-04-19T23:18:59.367Z,0.92
2024-04-19T23:22:03.146Z,1.09
2024-04-19T23:25:08.813Z,1.26
2024-04-19T23:28:12.321Z,1.36
2024-04-19T23:31:16.822Z,1.54
2024-04-19T23:34:20.384Z,1.68
2024-04-19T23:37:24.588Z,1.81
2024-04-19T23:40:28.058Z,1.95
2024-04-19T23:43:32.446Z,2.10
2024-04-19T23:46:36.745Z,2.16
2024-04-19T23:49:41.751Z,2.20
2024-04-19T23:52:46.627Z,2.29
2024-04-19T23:55:51.010Z,2.41
2024-04-19T23:58:54.779Z,2.60
